Time;durP1;ratioP1;P1;durP2;ratioP2;P2;SDS_P1;SDS_P2;PMS_P1;PMS_P2;Temp;Humidity;BMP_temperature;BMP_pressure;BME280_temperature;BME280_humidity;BME280_pressure;Samples;Min_cycle;Max_cycle;Signal;HPM_P1;HPM_P2
2022/01/11 00:00:20;;;;;;;24.42;5.30;;;14.00;99.90;;;;;;4963705;28;114370;-65
2022/01/11 00:02:47;;;;;;;29.70;5.63;;;14.00;99.90;;;;;;4962863;28;114810;-64
2022/01/11 00:05:22;;;;;;;26.58;5.97;;;14.00;99.90;;;;;;4963971;28;114062;-63
2022/01/11 00:07:50;;;;;;;30.65;6.72;;;14.00;99.90;;;;;;4945079;28;112769;-65
2022/01/11 00:10:25;;;;;;;27.90;5.95;;;14.00;99.90;;;;;;4944618;28;114257;-65
2022/01/11 00:12:51;;;;;;;32.63;7.25;;;14.00;99.90;;;;;;4944752;28;113022;-65
2022/01/11 00:15:17;;;;;;;25.38;6.60;;;14.00;99.90;;;;;;4944296;28;112709;-64
2022/01/11 00:17:42;;;;;;;30.05;7.65;;;14.00;99.90;;;;;;4943995;28;112801;-65
2022/01/11 00:20:12;;;;;;;35.60;7.40;;;14.00;99.90;;;;;;4942767;28;113080;-66
2022/01/11 00:22:49;;;;;;;30.63;6.80;;;14.00;99.90;;;;;;4942197;28;112597;-65
2022/01/11 00:25:15;;;;;;;44.42;8.73;;;13.90;99.90;;;;;;4945183;28;112362;-64
2022/01/11 00:27:41;;;;;;;39.20;7.85;;;13.90;99.90;;;;;;4944872;28;112568;-66
2022/01/11 00:30:08;;;;;;;31.67;6.57;;;14.00;99.90;;;;;;4926955;28;114549;-66
2022/01/11 00:32:41;;;;;;;28.45;6.28;;;14.00;99.90;;;;;;4944570;28;113400;-63
2022/01/11 00:35:11;;;;;;;36.33;6.72;;;14.00;99.90;;;;;;4945259;28;112492;-64
2022/01/11 00:37:37;;;;;;;29.58;6.47;;;14.00;99.90;;;;;;4945648;28;113023;-67
2022/01/11 00:40:04;;;;;;;35.05;7.80;;;14.00;99.90;;;;;;4944066;28;114266;-65
2022/01/11 00:42:31;;;;;;;27.35;6.50;;;14.00;99.90;;;;;;4942465;28;112869;-64
2022/01/11 00:44:58;;;;;;;30.60;6.80;;;13.90;99.90;;;;;;4944625;28;112318;-63
2022/01/11 00:47:24;;;;;;;19.63;5.65;;;13.90;99.90;;;;;;4944838;28;112625;-64
2022/01/11 00:49:51;;;;;;;25.08;5.18;;;13.90;99.90;;;;;;4944657;28;114076;-64
2022/01/11 00:52:17;;;;;;;21.08;4.28;;;13.90;99.90;;;;;;4943415;28;113272;-64
2022/01/11 00:54:43;;;;;;;7.85;2.13;;;13.90;99.90;;;;;;4944894;28;112644;-66
2022/01/11 00:57:09;;;;;;;7.85;2.20;;;13.90;99.90;;;;;;4944946;28;112481;-63
2022/01/11 00:59:35;;;;;;;13.27;2.75;;;13.90;99.90;;;;;;4944086;28;113585;-66
2022/01/11 01:02:01;;;;;;;8.30;2.53;;;13.90;99.90;;;;;;4925760;28;115567;-64
2022/01/11 01:04:27;;;;;;;5.50;1.85;;;13.90;99.90;;;;;;4944571;28;112483;-65
2022/01/11 01:06:53;;;;;;;9.15;2.15;;;13.90;99.90;;;;;;4952928;28;113014;-65
2022/01/11 01:09:19;;;;;;;6.43;1.98;;;13.80;99.90;;;;;;4982687;28;114481;-64
2022/01/11 01:11:46;;;;;;;8.30;1.58;;;13.80;99.90;;;;;;4983093;28;112408;-64
2022/01/11 01:14:12;;;;;;;14.88;2.35;;;13.80;99.90;;;;;;4983436;28;113115;-65
2022/01/11 01:16:39;;;;;;;7.15;2.00;;;13.80;99.90;;;;;;4965516;28;112536;-63
2022/01/11 01:19:05;;;;;;;9.38;2.03;;;13.80;99.90;;;;;;4982062;28;113316;-64
2022/01/11 01:21:37;;;;;;;5.97;1.25;;;13.70;99.90;;;;;;4975698;22;116758;-59
2022/01/11 01:24:04;;;;;;;5.28;1.70;;;13.70;99.90;;;;;;4959749;28;112543;-59
2022/01/11 01:26:31;;;;;;;9.70;2.42;;;13.70;99.90;;;;;;4981740;22;114112;-63
2022/01/11 01:28:59;;;;;;;6.50;2.20;;;13.70;99.90;;;;;;4979136;28;114201;-63
2022/01/11 01:31:27;;;;;;;17.80;3.28;;;13.70;99.90;;;;;;4983729;28;113222;-63
2022/01/11 01:33:54;;;;;;;5.10;2.25;;;13.70;99.90;;;;;;4966905;28;112657;-64
2022/01/11 01:36:20;;;;;;;14.55;3.08;;;13.70;99.90;;;;;;4967178;28;112580;-64
2022/01/11 01:38:45;;;;;;;16.58;2.67;;;13.70;99.90;;;;;;4966916;28;112906;-63
2022/01/11 01:41:19;;;;;;;16.85;3.40;;;13.70;99.90;;;;;;4965973;28;112877;-63
2022/01/11 01:43:48;;;;;;;21.63;4.20;;;13.70;99.90;;;;;;4970025;28;112430;-63
2022/01/11 01:46:15;;;;;;;16.08;2.80;;;13.80;99.90;;;;;;4987629;28;112297;-64
2022/01/11 01:48:41;;;;;;;22.25;4.97;;;13.80;99.90;;;;;;4966580;22;114616;-58
2022/01/11 01:51:08;;;;;;;36.45;5.28;;;13.80;99.90;;;;;;4986534;28;113737;-59
2022/01/11 01:53:36;;;;;;;27.17;5.30;;;13.80;99.90;;;;;;4960931;28;112510;-59
2022/01/11 01:56:03;;;;;;;22.88;4.07;;;13.80;99.90;;;;;;4966978;28;112790;-58
2022/01/11 01:58:29;;;;;;;19.40;3.17;;;13.80;99.90;;;;;;4965863;28;115019;-59
2022/01/11 02:01:02;;;;;;;15.55;2.28;;;13.80;99.90;;;;;;4947748;28;114590;-58
2022/01/11 02:03:30;;;;;;;11.23;2.42;;;13.80;99.90;;;;;;4967326;28;112803;-58
2022/01/11 02:05:57;;;;;;;8.15;2.05;;;13.80;99.90;;;;;;4975670;28;112574;-59
2022/01/11 02:08:25;;;;;;;12.85;2.45;;;13.80;99.90;;;;;;4984551;28;114393;-59
2022/01/11 02:10:52;;;;;;;10.55;1.95;;;13.80;99.90;;;;;;4986062;28;112782;-58
2022/01/11 02:13:18;;;;;;;9.38;2.00;;;13.70;99.90;;;;;;4986860;28;112660;-58
2022/01/11 02:15:45;;;;;;;4.93;1.55;;;13.70;99.90;;;;;;4968833;28;112519;-58
2022/01/11 02:18:14;;;;;;;17.63;2.38;;;13.70;99.90;;;;;;4985968;28;113060;-58
2022/01/11 02:20:43;;;;;;;9.65;1.90;;;13.70;99.90;;;;;;4985995;28;113481;-58
2022/01/11 02:23:10;;;;;;;8.45;2.30;;;13.70;99.90;;;;;;4986122;28;112442;-58
2022/01/11 02:25:36;;;;;;;8.82;1.60;;;13.70;99.90;;;;;;4987265;28;112877;-58
2022/01/11 02:28:04;;;;;;;5.75;1.25;;;13.70;99.90;;;;;;4967355;28;114332;-58
2022/01/11 02:30:33;;;;;;;9.50;2.20;;;13.70;99.90;;;;;;4984934;28;112951;-58
2022/01/11 02:33:00;;;;;;;6.50;2.03;;;13.70;99.90;;;;;;4985700;28;112879;-58
2022/01/11 02:35:26;;;;;;;6.53;2.22;;;13.70;99.90;;;;;;4985901;28;112377;-58
2022/01/11 02:37:51;;;;;;;8.23;1.60;;;13.70;99.90;;;;;;4985072;28;113628;-58
2022/01/11 02:40:17;;;;;;;11.52;2.28;;;13.70;99.90;;;;;;4984440;28;113396;-57
2022/01/11 02:42:43;;;;;;;8.05;1.90;;;13.70;99.90;;;;;;4956616;28;112489;-58
2022/01/11 02:45:17;;;;;;;5.07;1.92;;;13.70;99.90;;;;;;4965809;28;112978;-57
2022/01/11 02:47:47;;;;;;;8.13;2.00;;;13.70;99.90;;;;;;4964032;28;113205;-58
2022/01/11 02:50:15;;;;;;;13.27;2.35;;;13.70;99.90;;;;;;4964629;28;113509;-58
2022/01/11 02:52:41;;;;;;;20.67;1.77;;;13.70;99.90;;;;;;4965755;28;112427;-58
2022/01/11 02:55:10;;;;;;;14.70;2.58;;;13.70;99.90;;;;;;4947638;28;112840;-58
2022/01/11 02:57:36;;;;;;;14.05;3.65;;;13.70;99.90;;;;;;4965466;28;114310;-58
2022/01/11 03:00:15;;;;;;;13.00;2.90;;;13.70;99.90;;;;;;4965207;28;113926;-58
2022/01/11 03:02:41;;;;;;;19.33;3.33;;;13.70;99.90;;;;;;4948712;28;112534;-58
2022/01/11 03:05:10;;;;;;;14.55;2.92;;;13.70;99.90;;;;;;4965223;28;112603;-57
2022/01/11 03:07:36;;;;;;;17.55;2.80;;;13.70;99.90;;;;;;4965153;28;114026;-58
2022/01/11 03:10:14;;;;;;;11.63;2.38;;;13.80;99.90;;;;;;4964836;28;112574;-58
2022/01/11 03:12:43;;;;;;;16.48;2.85;;;13.70;99.90;;;;;;4966258;28;112688;-57
2022/01/11 03:15:09;;;;;;;18.92;3.17;;;13.70;99.90;;;;;;4965966;28;112574;-57
2022/01/11 03:17:35;;;;;;;12.13;2.33;;;13.70;99.90;;;;;;4965535;28;113340;-62
2022/01/11 03:20:00;;;;;;;10.75;2.20;;;13.70;99.90;;;;;;4964445;28;114217;-58
2022/01/11 03:22:26;;;;;;;14.48;3.28;;;13.70;99.90;;;;;;4948231;28;112738;-57
2022/01/11 03:24:52;;;;;;;8.18;2.53;;;13.70;99.90;;;;;;4965567;28;112441;-58
2022/01/11 03:27:18;;;;;;;8.40;3.25;;;13.70;99.90;;;;;;4964902;28;114136;-58
2022/01/11 03:29:44;;;;;;;10.23;2.38;;;13.70;99.90;;;;;;4947132;28;114314;-58
2022/01/11 03:32:12;;;;;;;17.10;3.63;;;13.70;99.90;;;;;;4965343;28;112478;-59
2022/01/11 03:34:38;;;;;;;16.45;2.45;;;13.60;99.90;;;;;;4964880;28;112601;-57
2022/01/11 03:37:04;;;;;;;13.38;2.17;;;13.60;99.90;;;;;;4964810;28;114930;-57
2022/01/11 03:39:32;;;;;;;12.90;3.30;;;13.60;99.90;;;;;;4964900;28;112927;-57
2022/01/11 03:41:58;;;;;;;13.70;3.28;;;13.70;99.90;;;;;;4936394;28;112605;-58
2022/01/11 03:44:24;;;;;;;18.35;2.60;;;13.70;99.90;;;;;;4984660;28;112795;-58
2022/01/11 03:46:49;;;;;;;25.27;4.45;;;13.70;99.90;;;;;;4984372;28;113101;-58
2022/01/11 03:49:15;;;;;;;22.08;3.67;;;13.70;99.90;;;;;;4983278;28;112446;-57
2022/01/11 03:51:41;;;;;;;11.88;2.92;;;13.70;99.90;;;;;;4985299;28;112513;-57
2022/01/11 03:54:11;;;;;;;12.73;2.35;;;13.70;99.90;;;;;;4984909;28;112721;-58
2022/01/11 03:56:38;;;;;;;12.73;2.17;;;13.70;99.90;;;;;;4984448;28;113827;-58
2022/01/11 03:59:08;;;;;;;7.20;1.90;;;13.70;99.90;;;;;;4966964;28;113017;-58
2022/01/11 04:01:38;;;;;;;13.32;2.70;;;13.70;99.90;;;;;;4985405;28;112498;-57
2022/01/11 04:04:05;;;;;;;;;;;13.70;99.90;;;;;;4985533;28;112473;-58
2022/01/11 04:06:31;;;;;;;16.60;2.70;;;13.70;99.90;;;;;;4985344;28;113124;-58
2022/01/11 04:08:57;;;;;;;15.55;3.00;;;13.70;99.90;;;;;;4983257;28;113276;-58
2022/01/11 04:11:23;;;;;;;14.10;3.47;;;13.70;99.90;;;;;;4966214;28;112566;-57
2022/01/11 04:13:50;;;;;;;17.73;2.72;;;13.80;99.90;;;;;;4967038;28;112470;-58
2022/01/11 04:16:16;;;;;;;11.55;2.05;;;13.80;99.90;;;;;;4984064;28;114566;-57
2022/01/11 04:18:42;;;;;;;13.88;3.13;;;13.70;99.90;;;;;;4984039;28;113492;-57
2022/01/11 04:21:08;;;;;;;9.15;2.28;;;13.70;99.90;;;;;;4966718;28;112744;-57
2022/01/11 04:23:34;;;;;;;16.80;2.83;;;13.80;99.90;;;;;;4984604;28;112457;-57
2022/01/11 04:26:01;;;;;;;11.43;2.50;;;13.80;99.90;;;;;;4983754;28;114183;-57
2022/01/11 04:28:27;;;;;;;12.63;1.85;;;13.80;99.90;;;;;;4983474;28;113611;-58
2022/01/11 04:30:58;;;;;;;9.60;3.17;;;13.80;99.90;;;;;;4984416;28;112288;-57
2022/01/11 04:33:25;;;;;;;9.90;2.92;;;13.80;99.90;;;;;;4967338;28;112740;-57
2022/01/11 04:35:51;;;;;;;12.48;3.42;;;13.80;99.90;;;;;;4966558;28;114150;-57
2022/01/11 04:38:19;;;;;;;6.68;2.08;;;13.80;99.90;;;;;;4983414;28;113375;-57
2022/01/11 04:40:45;;;;;;;9.68;2.97;;;13.80;99.90;;;;;;4983197;28;112262;-58
2022/01/11 04:43:11;;;;;;;21.98;3.63;;;13.80;99.90;;;;;;4969207;28;112774;-58
2022/01/11 04:45:37;;;;;;;22.80;3.45;;;13.80;99.90;;;;;;4963282;28;114020;-58
2022/01/11 04:48:03;;;;;;;16.85;2.97;;;13.80;99.90;;;;;;4963478;28;113377;-60
2022/01/11 04:50:29;;;;;;;16.35;3.45;;;13.80;99.90;;;;;;4964386;28;112516;-58
2022/01/11 04:52:57;;;;;;;11.45;2.03;;;13.70;99.90;;;;;;4946873;28;112762;-58
2022/01/11 04:55:23;;;;;;;13.18;2.45;;;13.80;99.90;;;;;;4963324;28;113187;-58
2022/01/11 04:57:50;;;;;;;16.13;3.17;;;13.80;99.90;;;;;;4962245;28;113673;-59
2022/01/11 05:00:17;;;;;;;23.65;3.92;;;13.80;99.90;;;;;;4964016;28;112576;-57
2022/01/11 05:02:43;;;;;;;10.55;2.95;;;13.80;99.90;;;;;;4963689;28;112575;-58
2022/01/11 05:05:09;;;;;;;10.40;2.53;;;13.80;99.90;;;;;;4945254;28;114154;-58
2022/01/11 05:07:35;;;;;;;21.50;3.35;;;13.80;99.90;;;;;;4962812;28;113134;-57
2022/01/11 05:10:04;;;;;;;19.10;2.50;;;13.70;99.90;;;;;;4964008;28;112457;-57
2022/01/11 05:12:30;;;;;;;14.40;2.22;;;13.80;99.90;;;;;;4962872;28;112728;-57
2022/01/11 05:14:56;;;;;;;12.95;2.95;;;13.80;99.90;;;;;;4945846;28;113260;-58
2022/01/11 05:17:22;;;;;;;15.80;3.17;;;13.80;99.90;;;;;;4962569;28;113623;-58
2022/01/11 05:19:47;;;;;;;11.77;2.58;;;13.80;99.90;;;;;;4963587;28;112731;-58
2022/01/11 05:22:13;;;;;;;9.82;2.47;;;13.70;99.90;;;;;;4963070;28;112515;-60
2022/01/11 05:24:39;;;;;;;13.07;3.17;;;13.70;99.90;;;;;;4962850;28;114381;-57
2022/01/11 05:27:05;;;;;;;11.98;3.53;;;13.70;99.90;;;;;;4962970;28;113491;-58
2022/01/11 05:29:31;;;;;;;17.58;3.88;;;13.70;99.90;;;;;;4963555;28;112322;-58
2022/01/11 05:31:58;;;;;;;9.23;1.83;;;13.60;99.90;;;;;;4964173;28;112488;-58
2022/01/11 05:34:28;;;;;;;14.30;2.72;;;13.70;99.90;;;;;;4962917;28;114489;-58
2022/01/11 05:36:54;;;;;;;12.38;2.10;;;13.60;99.90;;;;;;4962938;28;113646;-59
2022/01/11 05:39:20;;;;;;;7.95;1.55;;;13.60;99.90;;;;;;4964208;28;112345;-58
2022/01/11 05:41:45;;;;;;;6.10;1.80;;;13.60;99.90;;;;;;4967674;28;113136;-57
2022/01/11 05:44:11;;;;;;;13.10;2.20;;;13.60;99.90;;;;;;4982390;28;114054;-59
2022/01/11 05:46:37;;;;;;;9.98;1.90;;;13.60;99.90;;;;;;4963728;28;114536;-60
2022/01/11 05:49:03;;;;;;;6.72;2.40;;;13.60;99.90;;;;;;4982075;28;112508;-57
2022/01/11 05:51:29;;;;;;;9.05;2.53;;;13.60;99.90;;;;;;4982888;28;112457;-58
2022/01/11 05:53:58;;;;;;;22.75;3.85;;;13.60;99.90;;;;;;4983338;28;114362;-60
2022/01/11 05:56:24;;;;;;;13.10;2.73;;;13.60;99.90;;;;;;4982562;28;113635;-59
2022/01/11 05:58:52;;;;;;;3.75;1.10;;;13.60;99.90;;;;;;4964304;28;112985;-58
2022/01/11 06:01:18;;;;;;;4.63;1.05;;;13.60;99.90;;;;;;4963526;28;112593;-59
2022/01/11 06:03:44;;;;;;;5.00;1.83;;;13.60;99.90;;;;;;4965894;28;114248;-59
2022/01/11 06:06:10;;;;;;;10.75;1.85;;;13.60;99.90;;;;;;4982242;28;112807;-58
2022/01/11 06:08:38;;;;;;;6.68;1.63;;;13.60;99.90;;;;;;4982934;28;112607;-57
2022/01/11 06:11:04;;;;;;;7.18;2.15;;;13.60;99.90;;;;;;4982433;28;112565;-58
2022/01/11 06:13:30;;;;;;;12.27;2.63;;;13.60;99.90;;;;;;4981539;28;114282;-58
2022/01/11 06:15:56;;;;;;;11.68;1.85;;;13.60;99.90;;;;;;4983851;28;112764;-57
2022/01/11 06:18:21;;;;;;;10.68;2.35;;;13.60;99.90;;;;;;4986326;28;113001;-59
2022/01/11 06:20:47;;;;;;;13.63;3.80;;;13.60;99.90;;;;;;4986754;28;112485;-58
2022/01/11 06:23:13;;;;;;;12.73;2.38;;;13.60;99.90;;;;;;4984809;28;113182;-57
2022/01/11 06:25:39;;;;;;;17.50;3.53;;;13.50;99.90;;;;;;4984302;28;113218;-57
2022/01/11 06:28:05;;;;;;;14.40;3.05;;;13.50;99.90;;;;;;4986470;28;112406;-59
2022/01/11 06:30:31;;;;;;;21.80;5.30;;;13.50;99.90;;;;;;4966104;28;112422;-58
2022/01/11 06:32:57;;;;;;;13.95;2.83;;;13.50;99.90;;;;;;4964974;28;114278;-59
2022/01/11 06:35:24;;;;;;;22.33;3.75;;;13.50;99.90;;;;;;4947090;28;112904;-58
2022/01/11 06:37:51;;;;;;;19.27;3.35;;;13.60;99.90;;;;;;4966540;28;112336;-59
2022/01/11 06:40:19;;;;;;;11.65;2.85;;;13.60;99.90;;;;;;4947762;28;112643;-57
2022/01/11 06:42:47;;;;;;;10.23;2.50;;;13.60;99.90;;;;;;4976803;28;114149;-58
2022/01/11 06:45:14;;;;;;;11.75;2.22;;;13.60;99.90;;;;;;5002313;22;115839;-64
2022/01/11 06:47:40;;;;;;;10.30;2.35;;;13.60;99.90;;;;;;4965678;28;112484;-63
2022/01/11 06:50:07;;;;;;;5.00;2.33;;;13.60;99.90;;;;;;4964259;28;112464;-62
2022/01/11 06:52:33;;;;;;;4.03;1.40;;;13.60;99.90;;;;;;4981807;28;113542;-63
2022/01/11 06:54:59;;;;;;;4.55;1.40;;;13.60;99.90;;;;;;4981872;28;112736;-62
2022/01/11 06:57:27;;;;;;;6.78;1.73;;;13.60;99.90;;;;;;4965409;28;112545;-62
2022/01/11 06:59:53;;;;;;;11.35;2.08;;;13.60;99.90;;;;;;4947815;28;112586;-63
2022/01/11 07:02:19;;;;;;;9.93;2.42;;;13.60;99.90;;;;;;4964672;28;113156;-63
2022/01/11 07:04:45;;;;;;;5.75;1.23;;;13.60;99.90;;;;;;4960129;28;113609;-67
2022/01/11 07:07:10;;;;;;;7.20;1.60;;;13.60;99.90;;;;;;4982163;28;112563;-62
2022/01/11 07:09:36;;;;;;;11.90;1.92;;;13.60;99.90;;;;;;4956792;28;112512;-61
2022/01/11 07:12:03;;;;;;;6.15;1.30;;;13.60;99.90;;;;;;4966457;28;113401;-61
2022/01/11 07:14:29;;;;;;;7.05;1.25;;;13.60;99.90;;;;;;4947313;28;113035;-60
2022/01/11 07:16:54;;;;;;;6.63;1.80;;;13.60;99.90;;;;;;4965018;28;112817;-63
2022/01/11 07:19:20;;;;;;;6.68;2.70;;;13.60;99.90;;;;;;4964760;28;113433;-62
2022/01/11 07:21:47;;;;;;;4.65;1.48;;;13.60;99.90;;;;;;4947171;28;113118;-66
2022/01/11 07:24:14;;;;;;;11.30;1.60;;;13.60;99.90;;;;;;4963939;28;113851;-64
2022/01/11 07:26:41;;;;;;;2.50;1.60;;;13.50;99.90;;;;;;4964848;28;112928;-65
2022/01/11 07:29:07;;;;;;;5.63;1.90;;;13.50;99.90;;;;;;4965384;28;112859;-63
2022/01/11 07:31:36;;;;;;;10.75;2.63;;;13.50;99.90;;;;;;4964124;28;113212;-64
2022/01/11 07:34:03;;;;;;;4.53;1.42;;;13.50;99.90;;;;;;4964407;28;113881;-69
2022/01/11 07:36:29;;;;;;;7.40;2.72;;;13.50;99.90;;;;;;4970016;22;112752;-66
2022/01/11 07:38:55;;;;;;;8.52;1.70;;;13.50;99.90;;;;;;4964065;28;112623;-64
2022/01/11 07:41:21;;;;;;;2.75;1.92;;;13.50;99.90;;;;;;4965525;28;113027;-67
2022/01/11 07:43:46;;;;;;;5.45;2.38;;;13.50;99.90;;;;;;4969656;28;113694;-67
2022/01/11 07:46:12;;;;;;;3.40;1.77;;;13.50;99.90;;;;;;4978992;28;114177;-68
2022/01/11 07:48:38;;;;;;;6.57;2.15;;;13.50;99.90;;;;;;4983313;28;112862;-68
2022/01/11 07:51:05;;;;;;;6.07;1.98;;;13.50;99.90;;;;;;4982165;28;113084;-67
2022/01/11 07:53:31;;;;;;;7.78;1.77;;;13.50;99.90;;;;;;4982887;28;112925;-69
2022/01/11 07:55:57;;;;;;;3.83;1.90;;;13.60;99.90;;;;;;4965136;28;114410;-64
2022/01/11 07:58:23;;;;;;;7.35;3.15;;;13.60;99.90;;;;;;4973814;28;112572;-68
2022/01/11 08:00:49;;;;;;;6.40;2.13;;;13.60;99.90;;;;;;4950815;28;113747;-65
2022/01/11 08:03:15;;;;;;;8.45;2.40;;;13.60;99.90;;;;;;4957906;28;114271;-67
2022/01/11 08:05:41;;;;;;;5.38;1.75;;;13.60;99.90;;;;;;4982949;28;112511;-66
2022/01/11 08:08:07;;;;;;;6.18;1.80;;;13.60;99.90;;;;;;4966357;28;112511;-65
2022/01/11 08:10:33;;;;;;;5.28;1.38;;;13.60;99.90;;;;;;4982748;28;114824;-67
2022/01/11 08:13:02;;;;;;;2.60;1.30;;;13.70;99.90;;;;;;4950171;28;113022;-65
2022/01/11 08:15:28;;;;;;;6.78;1.65;;;13.70;99.90;;;;;;4984204;28;112706;-63
2022/01/11 08:17:54;;;;;;;8.75;1.73;;;13.70;99.90;;;;;;4983776;28;112572;-65
2022/01/11 08:20:20;;;;;;;9.57;1.77;;;13.70;99.90;;;;;;4982469;28;113066;-67
2022/01/11 08:22:48;;;;;;;8.45;2.20;;;13.70;99.90;;;;;;4964714;28;113553;-63
2022/01/11 08:25:14;;;;;;;8.02;2.13;;;13.70;99.90;;;;;;4967200;28;112343;-60
2022/01/11 08:27:40;;;;;;;5.13;2.00;;;13.70;99.90;;;;;;4982574;28;112574;-61
2022/01/11 08:30:07;;;;;;;6.35;1.80;;;13.80;99.90;;;;;;4982364;28;114077;-64
2022/01/11 08:32:32;;;;;;;3.60;1.75;;;13.80;99.90;;;;;;4967146;28;113913;-65
2022/01/11 08:34:59;;;;;;;11.63;2.38;;;13.80;99.90;;;;;;4959294;28;112757;-66
2022/01/11 08:37:25;;;;;;;9.40;1.75;;;13.80;99.90;;;;;;4961398;28;112783;-66
2022/01/11 08:39:51;;;;;;;6.28;2.78;;;13.80;99.90;;;;;;4944713;28;114072;-69
2022/01/11 08:42:17;;;;;;;7.35;1.63;;;13.80;99.90;;;;;;4963366;28;113520;-73
2022/01/11 08:44:49;;;;;;;8.10;3.72;;;13.80;99.90;;;;;;4964376;28;112392;-69
2022/01/11 08:47:16;;;;;;;6.80;2.35;;;13.90;99.90;;;;;;4963922;28;112703;-69
2022/01/11 08:49:42;;;;;;;14.10;1.80;;;13.90;99.90;;;;;;4962439;28;113294;-69
2022/01/11 08:52:09;;;;;;;6.07;2.00;;;13.90;99.90;;;;;;4961303;28;114602;-69
2022/01/11 08:54:35;;;;;;;7.00;2.45;;;13.90;99.90;;;;;;4964129;28;112576;-67
2022/01/11 08:57:01;;;;;;;12.20;2.40;;;13.90;99.90;;;;;;4946185;28;112983;-67
2022/01/11 08:59:27;;;;;;;6.95;2.17;;;13.90;99.90;;;;;;4962909;28;112950;-67
2022/01/11 09:01:57;;;;;;;5.05;2.22;;;13.90;99.90;;;;;;4961528;28;114270;-72
2022/01/11 09:04:23;;;;;;;13.60;3.85;;;13.90;99.90;;;;;;4963163;28;112271;-70
2022/01/11 09:09:23;;;;;;;10.35;3.20;;;13.90;99.90;;;;;;4971890;28;113037;-64
2022/01/11 09:11:49;;;;;;;6.55;1.75;;;13.90;99.90;;;;;;4944807;28;112471;-65
2022/01/11 09:14:15;;;;;;;6.32;2.33;;;13.90;99.90;;;;;;4976529;28;112478;-65
2022/01/11 09:16:40;;;;;;;22.63;2.38;;;14.00;99.90;;;;;;4983383;28;112788;-64
2022/01/11 09:19:06;;;;;;;7.70;1.60;;;14.00;99.90;;;;;;5000801;22;114164;-67
2022/01/11 09:21:33;;;;;;;11.05;2.17;;;14.00;99.90;;;;;;4963946;28;114342;-67
2022/01/11 09:24:00;;;;;;;10.93;2.13;;;14.10;99.90;;;;;;4997031;28;112366;-68
2022/01/11 09:26:26;;;;;;;4.85;1.63;;;14.10;99.90;;;;;;4978068;22;114229;-62
2022/01/11 09:28:52;;;;;;;12.00;2.30;;;14.10;99.90;;;;;;4961787;28;114374;-65
2022/01/11 09:31:18;;;;;;;6.75;2.92;;;14.20;99.90;;;;;;4962573;28;113039;-67
2022/01/11 09:33:44;;;;;;;15.32;4.93;;;14.20;99.90;;;;;;4962234;28;112655;-66
2022/01/11 09:36:10;;;;;;;28.80;5.28;;;14.30;99.90;;;;;;4961475;28;113048;-65
2022/01/11 09:38:38;;;;;;;25.10;5.65;;;14.40;99.90;;;;;;4962741;28;114277;-66
2022/01/11 09:41:04;;;;;;;29.48;4.75;;;14.40;99.90;;;;;;4962477;28;114337;-67
2022/01/11 09:43:30;;;;;;;19.90;4.05;;;14.40;99.90;;;;;;4960542;28;112656;-68
2022/01/11 09:45:57;;;;;;;11.20;2.35;;;14.40;99.90;;;;;;4963182;28;112622;-69
2022/01/11 09:48:27;;;;;;;11.00;2.00;;;14.40;99.90;;;;;;4944242;28;114608;-67
2022/01/11 09:50:53;;;;;;;3.85;1.50;;;14.40;99.90;;;;;;4962632;28;113044;-70
2022/01/11 09:53:19;;;;;;;7.80;2.17;;;14.40;99.90;;;;;;4971467;28;113456;-65
2022/01/11 09:55:45;;;;;;;10.70;3.05;;;14.40;99.90;;;;;;4945173;28;112632;-66
2022/01/11 09:58:13;;;;;;;4.15;1.50;;;14.40;99.90;;;;;;4964726;28;113172;-67
2022/01/11 10:00:41;;;;;;;13.25;2.78;;;14.40;99.90;;;;;;4958694;28;112823;-68
2022/01/11 10:03:07;;;;;;;7.43;2.88;;;14.40;99.90;;;;;;4955747;28;112637;-68
2022/01/11 10:05:36;;;;;;;6.75;1.55;;;14.50;99.90;;;;;;4960220;28;112587;-67
2022/01/11 10:08:28;;;;;;;5.90;1.23;;;14.50;99.90;;;;;;4956301;28;113745;-67
2022/01/11 10:10:59;;;;;;;7.32;2.05;;;14.50;99.90;;;;;;4962617;28;113523;-68
2022/01/11 10:13:39;;;;;;;4.53;1.33;;;14.60;99.90;;;;;;4960605;28;112446;-66
2022/01/11 10:16:21;;;;;;;5.95;1.42;;;14.60;99.90;;;;;;4960273;28;113639;-67
2022/01/11 10:18:48;;;;;;;4.43;2.03;;;14.70;99.90;;;;;;4961620;28;114254;-68
2022/01/11 10:21:33;;;;;;;8.73;1.33;;;14.70;99.90;;;;;;4961870;28;112846;-69
2022/01/11 10:24:00;;;;;;;5.25;1.38;;;14.70;99.90;;;;;;4945655;28;113515;-67
2022/01/11 10:26:44;;;;;;;4.70;1.63;;;14.80;99.90;;;;;;4978057;28;112715;-70
2022/01/11 10:29:37;;;;;;;7.07;1.80;;;14.80;99.90;;;;;;4956325;28;113153;-68
2022/01/11 10:32:30;;;;;;;3.45;1.50;;;14.90;99.90;;;;;;4977532;28;113381;-68
2022/01/11 10:35:07;;;;;;;6.07;1.95;;;14.90;99.90;;;;;;4951446;28;112928;-63
2022/01/11 10:37:43;;;;;;;8.18;1.65;;;14.90;99.90;;;;;;4963179;28;114415;-66
2022/01/11 10:40:16;;;;;;;10.38;2.17;;;14.90;99.90;;;;;;4947701;28;115757;-67
2022/01/11 10:42:48;;;;;;;5.47;1.90;;;14.90;99.90;;;;;;4965272;28;112901;-67
2022/01/11 10:45:38;;;;;;;7.03;1.98;;;14.90;99.90;;;;;;4960030;28;112391;-66
2022/01/11 10:48:07;;;;;;;11.63;2.45;;;14.90;99.90;;;;;;4944200;28;112893;-65
2022/01/11 10:50:39;;;;;;;6.07;2.30;;;14.90;99.90;;;;;;4941390;28;115073;-65
2022/01/11 10:53:17;;;;;;;2.72;1.13;;;14.90;99.90;;;;;;4959760;28;112521;-69
2022/01/11 10:55:47;;;;;;;4.28;1.45;;;14.90;99.90;;;;;;4958868;28;112952;-71
2022/01/11 10:58:13;;;;;;;6.13;1.60;;;14.90;99.90;;;;;;4957739;28;112529;-64
2022/01/11 11:00:50;;;;;;;6.85;1.50;;;15.00;99.90;;;;;;4957678;28;113249;-67
2022/01/11 11:03:18;;;;;;;12.02;1.70;;;15.00;99.90;;;;;;4953242;28;113778;-65
2022/01/11 11:05:54;;;;;;;5.25;1.48;;;15.10;99.90;;;;;;4953861;28;112852;-68
2022/01/11 11:08:30;;;;;;;9.00;2.13;;;15.20;99.90;;;;;;4956366;28;112517;-69
2022/01/11 11:10:56;;;;;;;6.22;2.15;;;15.30;99.90;;;;;;4956127;28;113825;-69
2022/01/11 11:13:28;;;;;;;10.65;1.77;;;15.40;99.90;;;;;;4956826;28;112556;-67
2022/01/11 11:16:20;;;;;;;8.00;2.45;;;15.40;99.90;;;;;;4960104;28;112814;-67
2022/01/11 11:18:56;;;;;;;7.65;2.10;;;15.40;99.90;;;;;;4955536;28;112746;-68
2022/01/11 11:21:25;;;;;;;14.35;5.22;;;15.30;99.90;;;;;;4952005;28;115361;-65
2022/01/11 11:24:04;;;;;;;19.83;4.60;;;15.30;99.90;;;;;;4955850;28;113407;-68
2022/01/11 11:26:39;;;;;;;10.48;2.90;;;15.30;99.90;;;;;;4980350;28;112657;-68
2022/01/11 11:29:07;;;;;;;17.42;5.25;;;15.20;99.90;;;;;;4969716;28;112501;-68
2022/01/11 11:31:34;;;;;;;9.07;2.70;;;15.30;99.90;;;;;;4956709;28;114748;-67
2022/01/11 11:34:02;;;;;;;10.82;2.38;;;15.30;99.90;;;;;;4970057;28;113361;-66
2022/01/11 11:36:29;;;;;;;4.82;1.67;;;15.20;99.90;;;;;;4956626;28;115682;-65
2022/01/11 11:39:17;;;;;;;8.30;2.25;;;15.30;99.90;;;;;;4951187;28;112575;-67
2022/01/11 11:41:56;;;;;;;8.60;3.08;;;15.20;99.90;;;;;;4973081;28;112994;-66
2022/01/11 11:44:25;;;;;;;2.90;1.30;;;15.20;99.90;;;;;;4971916;28;114177;-66
2022/01/11 11:47:00;;;;;;;6.15;2.08;;;15.20;99.90;;;;;;4980232;28;113000;-68
2022/01/11 11:49:45;;;;;;;5.78;1.95;;;15.40;99.90;;;;;;4954555;28;112693;-66
2022/01/11 11:52:37;;;;;;;3.95;1.50;;;15.40;99.90;;;;;;4971616;28;114400;-68
2022/01/11 11:55:05;;;;;;;7.45;3.35;;;15.50;99.90;;;;;;4971397;28;113310;-66
2022/01/11 11:57:33;;;;;;;10.32;3.05;;;15.60;99.90;;;;;;4971076;28;112797;-64
2022/01/11 12:00:14;;;;;;;5.88;2.75;;;15.70;99.90;;;;;;4964187;28;112517;-70
2022/01/11 12:03:01;;;;;;;3.15;1.98;;;15.70;99.90;;;;;;4947997;28;116211;-70
2022/01/11 12:05:39;;;;;;;7.32;3.15;;;15.70;99.90;;;;;;4974463;28;112441;-68
2022/01/11 12:08:24;;;;;;;4.97;2.78;;;15.70;99.90;;;;;;4977336;28;112519;-68
2022/01/11 12:10:52;;;;;;;4.55;1.80;;;15.90;99.90;;;;;;4946562;28;112819;-66
2022/01/11 12:13:45;;;;;;;7.03;2.88;;;16.30;99.90;;;;;;4959845;28;114404;-67
2022/01/11 12:16:26;;;;;;;6.88;1.95;;;16.80;99.90;;;;;;4964451;28;113666;-66
2022/01/11 12:18:54;;;;;;;3.60;1.60;;;17.10;99.90;;;;;;4966771;28;112680;-68
2022/01/11 12:21:21;;;;;;;2.05;1.10;;;17.50;99.90;;;;;;4976118;28;112498;-68
2022/01/11 12:23:47;;;;;;;2.05;1.33;;;17.80;99.90;;;;;;4973181;28;114374;-67
2022/01/11 12:26:22;;;;;;;2.40;1.25;;;18.00;99.90;;;;;;4967650;28;113232;-67
2022/01/11 12:29:12;;;;;;;5.00;1.80;;;17.90;99.90;;;;;;4971888;28;112387;-67
2022/01/11 12:31:59;;;;;;;7.50;2.55;;;18.10;99.90;;;;;;4962697;28;112918;-65
2022/01/11 12:34:48;;;;;;;4.65;1.45;;;18.20;99.90;;;;;;4980380;28;113083;-66
2022/01/11 12:37:31;;;;;;;3.00;1.60;;;18.30;99.90;;;;;;4964801;28;112912;-69
2022/01/11 12:40:13;;;;;;;11.05;2.05;;;18.40;99.90;;;;;;4957585;28;112399;-68
2022/01/11 12:43:06;;;;;;;1.83;1.15;;;18.40;99.90;;;;;;4961157;28;112876;-68